Little Water, New Mexico
Current Conditions -  °F | °C
As of 9:53 AM on Saturday 22 Nov 2014 (Local Time) from KFMN Reporting Station
Clear Clear  
Wind Chill: 29°   Ceiling: Unl
Heat Index: 35°   Visibility: 10mi
Dew Point: 22°   Wind: 7mph
Humidity: 59%   Direction: 120°ESE
Pressure: 30.12"   Gusts: NA
Location:  36.3945°N, 108.769°W
Report Text: KFMN 221653Z 12006KT 10SM CLR 02/M06 A3012 RMK AO2 SLP215 T00171056
Loading
Personal Weather Stations






























Interactive Weather Map New forecast layout! Learn more

10-Day Weather Forecast

Advertisements
Track Severe Weather on mobile